createdAt,value
2023-04-20T00:00:47.793Z,28.94
2023-04-20T00:01:47.796Z,28.94
2023-04-20T00:02:47.814Z,28.93
2023-04-20T00:03:47.801Z,28.92
2023-04-20T00:04:47.695Z,28.98
2023-04-20T00:05:47.681Z,28.96
2023-04-20T00:06:47.650Z,28.95
2023-04-20T00:07:47.613Z,28.92
2023-04-20T00:08:47.662Z,28.90
2023-04-20T00:09:47.644Z,28.98
2023-04-20T00:10:47.632Z,28.99
2023-04-20T00:11:47.647Z,28.92
2023-04-20T00:12:47.600Z,28.94
2023-04-20T00:13:47.578Z,28.96
2023-04-20T00:14:47.532Z,28.92
2023-04-20T00:15:47.514Z,28.98
2023-04-20T00:16:47.551Z,28.96
2023-04-20T00:17:47.478Z,28.92
2023-04-20T00:18:47.453Z,28.96
2023-04-20T00:19:47.445Z,28.99
2023-04-20T00:20:47.432Z,28.95
2023-04-20T00:21:47.402Z,28.98
2023-04-20T00:22:47.373Z,28.96
2023-04-20T00:23:47.345Z,28.98
2023-04-20T00:24:47.328Z,28.98
2023-04-20T00:25:47.297Z,28.98
2023-04-20T00:26:47.284Z,28.94
2023-04-20T00:27:47.255Z,28.99
2023-04-20T00:28:47.248Z,28.96
2023-04-20T00:29:47.199Z,28.95
2023-04-20T00:30:47.256Z,28.92
2023-04-20T00:31:47.156Z,28.97
2023-04-20T00:32:47.163Z,28.97
2023-04-20T00:33:47.093Z,28.94
2023-04-20T00:34:47.046Z,28.96
2023-04-20T00:35:47.015Z,28.93
2023-04-20T00:36:46.986Z,28.99
2023-04-20T00:37:46.967Z,28.94
2023-04-20T00:38:46.970Z,28.93
2023-04-20T00:39:46.913Z,28.93
2023-04-20T00:40:46.873Z,28.90
2023-04-20T00:41:46.845Z,28.96
2023-04-20T00:42:46.811Z,28.96
2023-04-20T00:43:46.790Z,28.90
2023-04-20T00:44:46.758Z,28.96
2023-04-20T00:45:46.762Z,28.92
2023-04-20T00:46:46.786Z,28.99
2023-04-20T00:47:46.807Z,28.99
2023-04-20T00:48:46.818Z,28.96
2023-04-20T00:49:46.855Z,28.96
2023-04-20T00:50:46.883Z,28.96
2023-04-20T00:51:46.905Z,28.99
2023-04-20T00:52:46.941Z,28.96
2023-04-20T00:53:46.920Z,28.94
2023-04-20T00:54:46.887Z,28.93
2023-04-20T00:55:46.857Z,28.95
2023-04-20T00:56:46.834Z,28.93
2023-04-20T00:57:46.807Z,28.97
2023-04-20T00:58:46.793Z,28.94
2023-04-20T00:59:46.755Z,28.95
2023-04-20T01:00:46.752Z,28.90
2023-04-20T01:01:46.781Z,28.93
2023-04-20T01:02:46.770Z,28.98
2023-04-20T01:03:46.941Z,28.93
2023-04-20T01:04:46.614Z,28.93
2023-04-20T01:05:46.647Z,28.98
2023-04-20T01:06:46.628Z,28.90
2023-04-20T01:07:46.602Z,28.93
2023-04-20T01:08:46.620Z,28.93
2023-04-20T01:09:46.529Z,28.90
2023-04-20T01:10:46.501Z,28.96
2023-04-20T01:11:46.499Z,28.96
2023-04-20T01:12:46.462Z,28.96
2023-04-20T01:13:46.436Z,28.95
2023-04-20T01:14:46.402Z,28.98
2023-04-20T01:15:46.417Z,28.94
2023-04-20T01:16:46.388Z,28.93
2023-04-20T01:17:46.403Z,28.94
2023-04-20T01:18:46.459Z,28.92
2023-04-20T01:19:46.352Z,28.92
2023-04-20T01:20:46.318Z,28.92
2023-04-20T01:21:46.299Z,28.94
2023-04-20T01:22:46.320Z,28.89
2023-04-20T01:23:46.260Z,28.92
2023-04-20T01:24:46.214Z,28.90
2023-04-20T01:25:46.184Z,28.96
2023-04-20T01:26:46.145Z,28.98
2023-04-20T01:27:46.129Z,28.92
2023-04-20T01:28:46.082Z,28.93
2023-04-20T01:29:46.026Z,28.93
2023-04-20T01:30:46.016Z,28.93
2023-04-20T01:31:46.059Z,28.95
2023-04-20T01:32:45.959Z,28.90
2023-04-20T01:33:45.909Z,28.91
2023-04-20T01:34:45.883Z,28.92
2023-04-20T01:35:45.845Z,28.87
2023-04-20T01:36:45.799Z,28.96
2023-04-20T01:37:45.794Z,28.91
2023-04-20T01:38:45.749Z,28.90
2023-04-20T01:39:45.754Z,28.94
2023-04-20T01:40:45.675Z,28.93
2023-04-20T01:41:45.633Z,28.94
2023-04-20T01:42:45.603Z,28.91
2023-04-20T01:43:45.599Z,28.90
2023-04-20T01:44:45.537Z,28.90
2023-04-20T01:45:45.513Z,28.89
2023-04-20T01:46:45.552Z,28.87
2023-04-20T01:47:45.481Z,28.91
2023-04-20T01:48:45.427Z,28.91
2023-04-20T01:49:45.371Z,28.90
2023-04-20T01:50:45.341Z,28.94
2023-04-20T01:51:45.334Z,28.94
2023-04-20T01:52:45.279Z,28.98
2023-04-20T01:53:45.286Z,28.91
2023-04-20T01:54:45.201Z,28.90
2023-04-20T01:55:45.173Z,28.90
2023-04-20T01:56:45.167Z,28.90
2023-04-20T01:57:45.108Z,28.90
2023-04-20T01:58:45.081Z,28.89
2023-04-20T01:59:45.033Z,28.94
2023-04-20T02:00:45.034Z,28.92
2023-04-20T02:01:44.964Z,28.90
2023-04-20T02:02:45.046Z,28.93
2023-04-20T02:03:45.047Z,28.90
2023-04-20T02:04:44.860Z,28.92
2023-04-20T02:05:44.843Z,28.93
2023-04-20T02:06:44.797Z,28.92
2023-04-20T02:07:44.781Z,28.89
2023-04-20T02:08:44.738Z,28.90
2023-04-20T02:09:44.694Z,28.89
2023-04-20T02:10:44.694Z,28.87
2023-04-20T02:11:44.664Z,28.89
2023-04-20T02:12:44.658Z,28.93
2023-04-20T02:13:44.672Z,28.92
2023-04-20T02:14:44.669Z,28.93
2023-04-20T02:15:44.651Z,28.92
2023-04-20T02:16:44.644Z,28.83
2023-04-20T02:17:44.635Z,28.90
2023-04-20T02:18:44.602Z,28.89
2023-04-20T02:21:03.861Z,28.93
2023-04-20T02:22:03.837Z,28.94
2023-04-20T02:23:03.855Z,28.94
2023-04-20T02:24:03.846Z,28.94
2023-04-20T02:25:03.823Z,28.91
2023-04-20T02:26:03.805Z,28.96
2023-04-20T02:27:03.828Z,28.91
2023-04-20T02:28:03.774Z,28.88
2023-04-20T02:29:03.773Z,28.89
2023-04-20T02:30:03.745Z,28.91
2023-04-20T02:31:03.791Z,28.90
2023-04-20T02:32:03.722Z,28.91
2023-04-20T02:33:03.721Z,28.90
2023-04-20T02:34:03.708Z,28.85
2023-04-20T02:35:03.682Z,28.87
2023-04-20T02:36:03.695Z,28.89
2023-04-20T02:37:03.665Z,28.90
2023-04-20T02:38:03.681Z,28.90
2023-04-20T02:39:03.633Z,28.91
2023-04-20T02:40:03.650Z,28.94
2023-04-20T02:41:03.611Z,28.94
2023-04-20T02:42:03.636Z,28.91
2023-04-20T02:43:03.594Z,28.91
2023-04-20T02:44:03.595Z,28.91
2023-04-20T02:45:03.571Z,28.87
2023-04-20T02:46:03.559Z,28.73
2023-04-20T02:47:03.543Z,28.42
2023-04-20T02:48:03.708Z,27.84
2023-04-20T02:49:03.534Z,27.58
2023-04-20T02:50:03.508Z,27.36
2023-04-20T02:51:03.469Z,27.49
2023-04-20T02:52:03.457Z,27.07
2023-04-20T02:53:03.468Z,27.01
2023-04-20T02:54:03.456Z,26.81
2023-04-20T02:55:03.445Z,26.85
2023-04-20T02:56:03.417Z,26.47
2023-04-20T02:57:03.400Z,26.38
2023-04-20T02:58:03.383Z,26.23
2023-04-20T02:59:03.359Z,26.04
2023-04-20T03:00:03.333Z,25.98
2023-04-20T03:01:03.332Z,25.95
2023-04-20T03:02:03.421Z,25.91
2023-04-20T03:03:03.513Z,25.74
2023-04-20T03:04:03.505Z,25.74
2023-04-20T03:05:03.276Z,25.74
2023-04-20T03:06:03.264Z,25.71
2023-04-20T03:07:03.238Z,25.55
2023-04-20T03:08:03.248Z,25.48
2023-04-20T03:09:03.220Z,25.37
2023-04-20T03:10:03.208Z,25.47
2023-04-20T03:11:03.207Z,25.40
2023-04-20T03:12:03.189Z,25.44
2023-04-20T03:13:03.176Z,25.35
2023-04-20T03:14:03.176Z,25.47
2023-04-20T03:15:03.160Z,25.22
2023-04-20T03:16:03.173Z,25.25
2023-04-20T03:17:03.136Z,25.22
2023-04-20T03:18:03.239Z,25.07
2023-04-20T03:19:03.244Z,25.17
2023-04-20T03:20:03.293Z,25.14
2023-04-20T03:21:03.359Z,25.18
2023-04-20T03:22:03.405Z,25.01
2023-04-20T03:23:03.480Z,25.02
2023-04-20T03:24:03.530Z,25.02
2023-04-20T03:25:03.581Z,24.98
2023-04-20T03:26:03.650Z,24.99
2023-04-20T03:27:03.701Z,25.04
2023-04-20T03:28:03.740Z,24.96
2023-04-20T03:29:03.789Z,24.81
2023-04-20T03:30:03.857Z,24.85
2023-04-20T03:31:03.902Z,24.85
2023-04-20T03:32:04.049Z,24.88
2023-04-20T03:33:04.091Z,24.78
2023-04-20T03:34:04.093Z,24.95
2023-04-20T03:35:04.166Z,24.89
2023-04-20T03:36:04.215Z,24.76
2023-04-20T03:37:04.275Z,24.68
2023-04-20T03:38:04.327Z,24.63
2023-04-20T03:39:04.408Z,24.78
2023-04-20T03:40:04.436Z,24.66
2023-04-20T03:41:04.472Z,24.72
2023-04-20T03:42:04.517Z,24.79
2023-04-20T03:43:04.587Z,24.69
2023-04-20T03:44:04.626Z,24.68
2023-04-20T03:45:04.666Z,24.77
2023-04-20T03:46:04.781Z,24.78
2023-04-20T03:47:04.790Z,24.74
2023-04-20T03:48:04.839Z,24.64
2023-04-20T03:49:04.918Z,24.55
2023-04-20T03:50:04.932Z,24.60
2023-04-20T03:51:04.967Z,24.68
2023-04-20T03:52:05.025Z,24.67
2023-04-20T03:53:05.076Z,24.68
2023-04-20T03:54:05.105Z,24.64
2023-04-20T03:55:05.150Z,24.64
2023-04-20T03:56:05.177Z,24.62
2023-04-20T03:57:05.228Z,24.66
2023-04-20T03:58:05.227Z,24.66
2023-04-20T03:59:05.299Z,24.68
2023-04-20T04:00:05.432Z,24.59
2023-04-20T04:01:05.421Z,24.63
2023-04-20T04:02:05.480Z,24.63
2023-04-20T04:03:05.571Z,24.56
2023-04-20T04:04:05.771Z,24.60
2023-04-20T04:05:05.625Z,24.66
2023-04-20T04:06:05.455Z,24.60
2023-04-20T04:07:05.465Z,24.67
2023-04-20T04:08:05.464Z,24.59
2023-04-20T04:09:05.462Z,24.57
2023-04-20T04:10:05.470Z,24.64
2023-04-20T04:11:05.466Z,24.61
2023-04-20T04:12:05.479Z,24.68
2023-04-20T04:13:05.461Z,24.57
2023-04-20T04:14:05.508Z,24.55
2023-04-20T04:15:05.486Z,24.71
2023-04-20T04:16:05.470Z,24.66
2023-04-20T04:17:05.471Z,24.60
2023-04-20T04:18:05.536Z,24.75
2023-04-20T04:19:05.464Z,24.45
2023-04-20T04:20:05.470Z,24.52
2023-04-20T04:21:05.474Z,24.68
2023-04-20T04:22:05.481Z,24.67
2023-04-20T04:23:05.476Z,24.61
2023-04-20T04:24:05.480Z,24.64
2023-04-20T04:25:05.500Z,24.56
2023-04-20T04:26:05.485Z,24.52
2023-04-20T04:27:05.484Z,24.67
2023-04-20T04:28:05.487Z,24.60
2023-04-20T04:29:05.489Z,24.59
2023-04-20T04:30:05.498Z,24.60
2023-04-20T04:31:05.491Z,24.69
2023-04-20T04:32:05.486Z,24.69
2023-04-20T04:33:05.537Z,24.67
2023-04-20T04:34:05.480Z,24.56
2023-04-20T04:35:05.472Z,24.66
2023-04-20T04:36:05.534Z,24.59
2023-04-20T04:37:05.491Z,24.59
2023-04-20T04:38:05.483Z,24.59
2023-04-20T04:39:05.498Z,24.65
2023-04-20T04:40:05.498Z,24.62
2023-04-20T04:41:05.508Z,24.70
2023-04-20T04:42:05.526Z,24.69
2023-04-20T04:43:05.528Z,24.70
2023-04-20T04:44:05.566Z,24.70
2023-04-20T04:45:05.574Z,24.70
2023-04-20T04:46:05.619Z,24.60
2023-04-20T04:47:05.586Z,24.63
2023-04-20T04:48:08.109Z,24.60
2023-04-20T04:49:05.600Z,24.72
2023-04-20T04:50:05.597Z,24.67
2023-04-20T04:51:05.610Z,24.56
2023-04-20T04:52:05.578Z,24.56
2023-04-20T04:53:05.583Z,24.57
2023-04-20T04:54:05.586Z,24.78
2023-04-20T04:55:05.564Z,25.12
2023-04-20T04:56:05.589Z,25.23
2023-04-20T04:57:05.573Z,25.24
2023-04-20T04:58:05.582Z,25.28
2023-04-20T04:59:05.580Z,25.27
2023-04-20T05:00:05.590Z,25.25
2023-04-20T05:01:05.585Z,25.24
2023-04-20T05:02:05.643Z,25.27
2023-04-20T05:03:05.659Z,25.33
2023-04-20T05:04:05.737Z,25.32
2023-04-20T05:05:07.021Z,25.34
2023-04-20T05:06:05.762Z,25.42
2023-04-20T05:07:05.793Z,25.44
2023-04-20T05:08:05.892Z,25.47
2023-04-20T05:09:05.929Z,25.44
2023-04-20T05:10:06.017Z,25.45
2023-04-20T05:11:06.004Z,25.45
2023-04-20T05:12:06.023Z,25.54
2023-04-20T05:13:06.090Z,25.49
2023-04-20T05:14:06.131Z,25.51
2023-04-20T05:15:06.176Z,25.59
2023-04-20T05:16:06.240Z,25.54
2023-04-20T05:17:06.266Z,25.60
2023-04-20T05:18:06.450Z,25.63
2023-04-20T05:19:06.405Z,25.56
2023-04-20T05:20:06.456Z,25.62
2023-04-20T05:21:06.545Z,25.66
2023-04-20T05:22:06.607Z,25.62
2023-04-20T05:23:06.648Z,25.69
2023-04-20T05:24:06.706Z,25.74
2023-04-20T05:25:06.783Z,25.76
2023-04-20T05:26:06.834Z,25.68
2023-04-20T05:27:06.908Z,25.71
2023-04-20T05:28:06.954Z,25.53
2023-04-20T05:29:07.041Z,25.43
2023-04-20T05:31:08.037Z,25.22
2023-04-20T05:32:07.076Z,25.11
2023-04-20T05:33:07.085Z,25.03
2023-04-20T05:34:07.041Z,24.99
2023-04-20T05:35:07.032Z,25.01
2023-04-20T05:36:07.026Z,24.89
2023-04-20T05:37:07.033Z,24.95
2023-04-20T05:38:07.062Z,24.79
2023-04-20T05:39:07.042Z,24.82
2023-04-20T05:40:07.047Z,24.73
2023-04-20T05:41:07.153Z,24.81
2023-04-20T05:42:07.195Z,24.85
2023-04-20T05:43:07.205Z,24.68
2023-04-20T05:44:07.205Z,24.75
2023-04-20T05:45:07.215Z,24.74
2023-04-20T05:46:07.291Z,24.71
2023-04-20T05:47:07.291Z,24.67
2023-04-20T05:48:07.374Z,24.65
2023-04-20T05:49:07.341Z,24.66
2023-04-20T05:50:07.343Z,24.62
2023-04-20T05:51:07.364Z,24.57
2023-04-20T05:52:07.460Z,24.57
2023-04-20T05:53:07.480Z,24.67
2023-04-20T05:54:07.507Z,24.61
2023-04-20T05:55:07.489Z,24.61
2023-04-20T05:56:07.501Z,24.55
2023-04-20T05:57:07.518Z,24.57
2023-04-20T05:58:07.520Z,24.61
2023-04-20T05:59:07.505Z,24.57
2023-04-20T06:00:07.502Z,24.62
2023-04-20T06:01:07.516Z,24.61
2023-04-20T06:02:07.597Z,24.55
2023-04-20T06:03:07.823Z,24.55
2023-04-20T06:04:07.718Z,24.51
2023-04-20T06:05:07.678Z,24.51
2023-04-20T06:06:07.569Z,24.51
2023-04-20T06:07:07.570Z,24.49
2023-04-20T06:08:07.597Z,24.54
2023-04-20T06:09:07.590Z,24.48
2023-04-20T06:10:07.585Z,24.58
2023-04-20T06:12:26.970Z,24.59
2023-04-20T06:13:26.951Z,24.55
2023-04-20T06:14:26.909Z,24.56
2023-04-20T06:15:26.926Z,24.57
2023-04-20T06:16:27.072Z,24.59
2023-04-20T06:17:26.955Z,24.52
2023-04-20T06:18:26.870Z,24.51
2023-04-20T06:19:26.865Z,24.59
2023-04-20T06:20:26.865Z,24.54
2023-04-20T06:21:26.850Z,24.50
2023-04-20T06:22:26.822Z,24.57
2023-04-20T06:23:26.789Z,24.54
2023-04-20T06:24:26.801Z,24.56
2023-04-20T06:25:26.767Z,24.51
2023-04-20T06:26:26.766Z,24.56
2023-04-20T06:27:26.724Z,24.60
2023-04-20T06:28:26.735Z,24.54
2023-04-20T06:29:26.728Z,24.64
2023-04-20T06:30:26.711Z,24.50
2023-04-20T06:31:26.754Z,24.53
2023-04-20T06:32:26.686Z,24.54
2023-04-20T06:33:26.633Z,24.54
2023-04-20T06:34:26.642Z,24.48
2023-04-20T06:35:26.647Z,24.52
2023-04-20T06:36:26.674Z,24.57
2023-04-20T06:37:26.726Z,24.66
2023-04-20T06:38:26.751Z,24.55
2023-04-20T06:39:26.972Z,24.65
2023-04-20T06:40:26.776Z,24.65
2023-04-20T06:41:26.796Z,24.58
2023-04-20T06:42:26.824Z,24.62
2023-04-20T06:43:26.821Z,24.60
2023-04-20T06:44:26.847Z,24.62
2023-04-20T06:45:26.858Z,24.55
2023-04-20T06:46:26.927Z,24.55
2023-04-20T06:47:26.921Z,24.58
2023-04-20T06:48:31.674Z,24.74
2023-04-20T06:49:27.917Z,24.68
2023-04-20T06:50:26.903Z,24.64
2023-04-20T06:51:26.887Z,24.57
2023-04-20T06:52:26.870Z,24.60
2023-04-20T06:53:26.867Z,24.72
2023-04-20T06:54:26.866Z,24.62
2023-04-20T06:55:26.841Z,24.65
2023-04-20T06:56:26.814Z,24.71
2023-04-20T06:57:26.794Z,24.71
2023-04-20T06:58:26.792Z,24.68
2023-04-20T06:59:26.812Z,24.68
2023-04-20T07:00:26.790Z,24.60
2023-04-20T07:01:26.769Z,24.72
2023-04-20T07:02:26.901Z,24.64
2023-04-20T07:03:26.967Z,24.62
2023-04-20T07:04:26.879Z,24.81
2023-04-20T07:05:26.865Z,24.81
2023-04-20T07:06:26.895Z,24.74
2023-04-20T07:07:26.906Z,24.65
2023-04-20T07:10:00.514Z,24.78
2023-04-20T07:10:45.874Z,24.75
2023-04-20T07:11:45.783Z,24.75
2023-04-20T07:12:45.764Z,24.73
2023-04-20T07:13:45.730Z,24.72
2023-04-20T07:14:45.690Z,24.84
2023-04-20T07:15:45.705Z,24.82
2023-04-20T07:16:45.674Z,24.62
2023-04-20T07:17:45.692Z,24.74
2023-04-20T07:18:45.628Z,24.72
2023-04-20T07:19:45.609Z,24.81
2023-04-20T07:20:45.590Z,24.85
2023-04-20T07:21:45.557Z,24.77
2023-04-20T07:22:45.585Z,24.91
2023-04-20T07:23:45.525Z,24.88
2023-04-20T07:24:45.516Z,24.87
2023-04-20T07:25:45.510Z,24.95
2023-04-20T07:26:45.529Z,24.87
2023-04-20T07:27:45.484Z,24.87
2023-04-20T07:28:45.527Z,24.79
2023-04-20T07:29:45.440Z,24.92
2023-04-20T07:30:45.438Z,24.91
2023-04-20T07:31:45.412Z,24.94
2023-04-20T07:32:45.442Z,24.94
2023-04-20T07:33:45.400Z,24.98
2023-04-20T07:34:45.393Z,25.04
2023-04-20T07:35:45.335Z,24.82
2023-04-20T07:36:45.319Z,24.95
2023-04-20T07:37:45.356Z,24.96
2023-04-20T07:38:45.300Z,25.08
2023-04-20T07:39:45.314Z,25.04
2023-04-20T07:40:45.354Z,24.96
2023-04-20T07:41:45.249Z,25.11
2023-04-20T07:42:45.269Z,25.14
2023-04-20T07:43:45.230Z,25.11
2023-04-20T07:44:45.231Z,25.17
2023-04-20T07:45:45.249Z,25.17
2023-04-20T07:46:45.179Z,25.12
2023-04-20T07:47:45.216Z,25.10
2023-04-20T07:48:45.156Z,25.20
2023-04-20T07:49:45.158Z,25.18
2023-04-20T07:50:45.570Z,25.14
2023-04-20T07:51:45.116Z,25.17
2023-04-20T07:52:45.170Z,25.31
2023-04-20T07:53:45.127Z,25.20
2023-04-20T07:54:45.159Z,25.21
2023-04-20T07:55:45.194Z,25.21
2023-04-20T07:56:45.201Z,25.25
2023-04-20T07:57:45.216Z,25.24
2023-04-20T07:58:45.225Z,25.33
2023-04-20T07:59:45.261Z,25.42
2023-04-20T08:00:45.307Z,25.44
2023-04-20T08:01:45.306Z,25.30
2023-04-20T08:02:45.460Z,25.36
2023-04-20T08:03:45.667Z,25.44
2023-04-20T08:04:45.612Z,25.44
2023-04-20T08:05:45.428Z,25.47
2023-04-20T08:06:45.419Z,25.52
2023-04-20T08:07:45.454Z,25.47
2023-04-20T08:08:45.461Z,25.44
2023-04-20T08:09:45.545Z,25.50
2023-04-20T08:10:45.515Z,25.58
2023-04-20T08:11:45.512Z,25.50
2023-04-20T08:12:45.556Z,25.53
2023-04-20T08:13:45.572Z,25.56
2023-04-20T08:14:45.758Z,25.59
2023-04-20T08:15:45.654Z,25.58
2023-04-20T08:16:45.653Z,25.59
2023-04-20T08:17:45.726Z,25.70
2023-04-20T08:18:45.690Z,25.65
2023-04-20T08:19:46.168Z,25.69
2023-04-20T08:20:45.696Z,25.62
2023-04-20T08:21:45.709Z,25.74
2023-04-20T08:22:45.757Z,25.61
2023-04-20T08:23:45.779Z,25.71
2023-04-20T08:24:45.781Z,25.63
2023-04-20T08:25:45.799Z,25.78
2023-04-20T08:26:45.944Z,25.75
2023-04-20T08:27:45.818Z,25.75
2023-04-20T08:28:45.833Z,25.78
2023-04-20T08:29:45.835Z,25.87
2023-04-20T08:30:46.029Z,25.84
2023-04-20T08:31:45.912Z,25.87
2023-04-20T08:32:45.947Z,25.97
2023-04-20T08:33:46.405Z,25.95
2023-04-20T08:34:45.958Z,26.01
2023-04-20T08:35:45.949Z,26.07
2023-04-20T08:36:46.038Z,26.06
2023-04-20T08:37:45.980Z,26.11
2023-04-20T08:38:46.018Z,26.14
2023-04-20T08:39:45.992Z,26.21
2023-04-20T08:40:45.998Z,26.16
2023-04-20T08:41:46.014Z,26.17
2023-04-20T08:42:46.013Z,26.06
2023-04-20T08:43:46.025Z,26.03
2023-04-20T08:44:46.029Z,26.02
2023-04-20T08:45:46.032Z,25.96
2023-04-20T08:46:46.096Z,25.92
2023-04-20T08:47:46.114Z,26.14
2023-04-20T08:48:46.089Z,26.05
2023-04-20T08:49:46.060Z,26.09
2023-04-20T08:50:46.057Z,26.14
2023-04-20T08:51:46.049Z,26.03
2023-04-20T08:52:46.043Z,26.06
2023-04-20T08:53:46.074Z,26.05
2023-04-20T08:54:56.060Z,26.07
2023-04-20T08:55:46.985Z,26.02
2023-04-20T08:56:45.957Z,26.08
2023-04-20T08:57:45.939Z,26.04
2023-04-20T08:58:45.907Z,26.02
2023-04-20T08:59:45.864Z,26.06
2023-04-20T09:00:45.846Z,26.06
2023-04-20T09:01:45.860Z,26.13
2023-04-20T09:02:46.017Z,26.01
2023-04-20T09:03:45.984Z,26.06
2023-04-20T09:04:45.822Z,26.05
2023-04-20T09:05:45.709Z,26.06
2023-04-20T09:06:45.689Z,26.07
2023-04-20T09:07:45.695Z,26.10
2023-04-20T09:08:45.672Z,25.97
2023-04-20T09:09:45.639Z,26.06
2023-04-20T09:10:45.609Z,25.98
2023-04-20T09:11:45.585Z,26.07
2023-04-20T09:12:45.552Z,26.01
2023-04-20T09:13:45.496Z,26.05
2023-04-20T09:14:45.498Z,26.06
2023-04-20T09:15:45.504Z,26.08
2023-04-20T09:16:45.681Z,26.06
2023-04-20T09:17:45.599Z,25.99
2023-04-20T09:18:45.625Z,26.05
2023-04-20T09:19:45.675Z,26.04
2023-04-20T09:20:45.635Z,26.05
2023-04-20T09:21:45.617Z,26.06
2023-04-20T09:22:45.614Z,26.04
2023-04-20T09:23:45.585Z,26.04
2023-04-20T09:24:45.570Z,26.05
2023-04-20T09:25:45.539Z,26.03
2023-04-20T09:26:45.513Z,26.05
2023-04-20T09:27:45.477Z,26.05
2023-04-20T09:28:45.449Z,26.02
2023-04-20T09:29:45.434Z,26.04
2023-04-20T09:30:45.433Z,26.06
2023-04-20T09:31:45.409Z,26.07
2023-04-20T09:32:45.398Z,26.11
2023-04-20T09:33:45.310Z,26.06
2023-04-20T09:34:45.306Z,26.04
2023-04-20T09:35:45.403Z,26.05
2023-04-20T09:36:45.232Z,26.00
2023-04-20T09:37:45.201Z,26.05
2023-04-20T09:38:45.175Z,26.07
2023-04-20T09:39:45.193Z,26.03
2023-04-20T09:40:45.153Z,26.05
2023-04-20T09:41:45.107Z,26.02
2023-04-20T09:42:45.066Z,26.02
2023-04-20T09:43:45.080Z,26.00
2023-04-20T09:44:45.080Z,26.01
2023-04-20T09:45:45.084Z,25.97
2023-04-20T09:46:45.045Z,26.03
2023-04-20T09:47:45.133Z,26.06
2023-04-20T09:48:45.032Z,25.96
2023-04-20T09:49:44.997Z,26.03
2023-04-20T09:50:49.829Z,26.03
2023-04-20T09:51:45.944Z,26.02
2023-04-20T09:52:44.916Z,26.09
2023-04-20T09:53:44.873Z,26.10
2023-04-20T09:54:44.879Z,26.09
2023-04-20T09:55:44.823Z,26.08
2023-04-20T09:56:44.794Z,26.06
2023-04-20T09:57:44.762Z,26.07
2023-04-20T09:58:44.717Z,26.09
2023-04-20T09:59:44.722Z,26.11
2023-04-20T10:00:44.680Z,26.11
2023-04-20T10:01:44.756Z,26.17
2023-04-20T10:02:44.704Z,26.10
2023-04-20T10:03:44.698Z,26.06
2023-04-20T10:04:44.649Z,26.09
2023-04-20T10:05:44.494Z,26.03
2023-04-20T10:06:44.498Z,26.08
2023-04-20T10:07:44.451Z,26.01
2023-04-20T10:08:44.584Z,26.02
2023-04-20T10:09:44.462Z,26.05
2023-04-20T10:10:44.465Z,26.01
2023-04-20T10:11:52.426Z,26.02
2023-04-20T10:12:45.466Z,26.04
2023-04-20T10:13:44.404Z,26.06
2023-04-20T10:14:44.372Z,26.01
2023-04-20T10:15:44.329Z,26.07
2023-04-20T10:16:44.341Z,26.03
2023-04-20T10:17:44.365Z,26.09
2023-04-20T10:18:44.335Z,26.02
2023-04-20T10:19:44.224Z,26.08
2023-04-20T10:20:44.220Z,26.03
2023-04-20T10:21:44.262Z,26.08
2023-04-20T10:22:44.293Z,26.07
2023-04-20T10:23:44.299Z,26.07
2023-04-20T10:24:44.317Z,26.05
2023-04-20T10:25:44.352Z,26.07
2023-04-20T10:26:44.390Z,26.07
2023-04-20T10:27:44.372Z,26.02
2023-04-20T10:28:44.400Z,26.06
2023-04-20T10:29:44.443Z,26.08
2023-04-20T10:30:44.486Z,26.13
2023-04-20T10:31:44.454Z,26.10
2023-04-20T10:32:44.482Z,26.17
2023-04-20T10:33:44.497Z,26.17
2023-04-20T10:34:44.456Z,26.16
2023-04-20T10:35:45.910Z,26.14
2023-04-20T10:36:44.484Z,26.20
2023-04-20T10:37:44.499Z,26.17
2023-04-20T10:38:44.499Z,26.17
2023-04-20T10:39:44.515Z,26.19
2023-04-20T10:40:44.513Z,26.17
2023-04-20T10:41:44.532Z,26.17
2023-04-20T10:42:44.588Z,26.17
2023-04-20T10:43:44.536Z,26.27
2023-04-20T10:44:44.573Z,26.20
2023-04-20T10:45:44.544Z,26.22
2023-04-20T10:46:44.587Z,26.20
2023-04-20T10:47:44.619Z,26.16
2023-04-20T10:48:44.565Z,26.25
2023-04-20T10:49:44.581Z,26.25
2023-04-20T10:50:44.575Z,26.28
2023-04-20T10:51:44.578Z,26.25
2023-04-20T10:52:44.586Z,26.32
2023-04-20T10:53:44.593Z,26.30
2023-04-20T10:54:44.604Z,26.31
2023-04-20T10:55:44.607Z,26.25
2023-04-20T10:56:44.626Z,26.28
2023-04-20T10:57:44.590Z,26.27
2023-04-20T10:58:44.629Z,26.27
2023-04-20T10:59:44.629Z,26.31
2023-04-20T11:00:44.608Z,26.31
2023-04-20T11:01:44.680Z,26.28
2023-04-20T11:02:44.700Z,26.32
2023-04-20T11:03:44.743Z,26.27
2023-04-20T11:04:44.694Z,26.27
2023-04-20T11:05:44.641Z,26.25
2023-04-20T11:06:44.674Z,26.27
2023-04-20T11:07:44.650Z,26.25
2023-04-20T11:08:44.725Z,26.23
2023-04-20T11:09:44.699Z,26.25
2023-04-20T11:10:44.675Z,26.26
2023-04-20T11:11:44.583Z,26.23
2023-04-20T11:12:44.555Z,26.26
2023-04-20T11:13:44.572Z,26.29
2023-04-20T11:14:44.491Z,26.30
2023-04-20T11:15:44.462Z,26.33
2023-04-20T11:16:49.639Z,26.35
2023-04-20T11:17:45.466Z,26.38
2023-04-20T11:18:44.364Z,26.38
2023-04-20T11:19:44.352Z,26.34
2023-04-20T11:20:44.297Z,26.33
2023-04-20T11:21:44.268Z,26.33
2023-04-20T11:22:44.207Z,26.37
2023-04-20T11:23:44.170Z,26.30
2023-04-20T11:24:44.241Z,26.41
2023-04-20T11:25:44.076Z,26.35
2023-04-20T11:26:44.113Z,26.41
2023-04-20T11:27:44.031Z,26.35
2023-04-20T11:28:44.112Z,26.42
2023-04-20T11:29:43.918Z,26.36
2023-04-20T11:30:43.888Z,26.42
2023-04-20T11:31:43.936Z,26.44
2023-04-20T11:32:44.068Z,26.45
2023-04-20T11:33:43.807Z,26.38
2023-04-20T11:34:46.158Z,26.39
2023-04-20T11:35:43.679Z,26.41
2023-04-20T11:36:43.645Z,26.33
2023-04-20T11:37:43.595Z,26.37
2023-04-20T11:38:43.562Z,26.40
2023-04-20T11:39:43.529Z,26.34
2023-04-20T11:40:43.470Z,26.37
2023-04-20T11:41:43.448Z,26.37
2023-04-20T11:42:43.406Z,26.40
2023-04-20T11:43:43.378Z,26.38
2023-04-20T11:44:43.320Z,26.37
2023-04-20T11:45:43.294Z,26.34
2023-04-20T11:46:43.234Z,26.46
2023-04-20T11:47:43.234Z,26.49
2023-04-20T11:48:43.144Z,26.56
2023-04-20T11:49:43.123Z,26.57
2023-04-20T11:50:43.052Z,26.63
2023-04-20T11:51:43.016Z,26.57
2023-04-20T11:52:42.974Z,26.61
2023-04-20T11:53:42.934Z,26.62
2023-04-20T11:54:42.928Z,26.64
2023-04-20T11:55:42.888Z,26.64
2023-04-20T11:56:42.837Z,26.60
2023-04-20T11:57:42.787Z,26.59
2023-04-20T11:58:42.766Z,26.54
2023-04-20T11:59:42.710Z,26.53
2023-04-20T12:00:42.666Z,26.62
2023-04-20T12:01:42.687Z,26.61
2023-04-20T12:02:42.689Z,26.65
2023-04-20T12:03:43.974Z,26.65
2023-04-20T12:04:42.641Z,26.59
2023-04-20T12:05:42.589Z,27.04
2023-04-20T12:06:42.436Z,27.55
2023-04-20T12:07:42.401Z,28.43
2023-04-20T12:08:42.345Z,28.81
2023-04-20T12:09:42.316Z,29.31
2023-04-20T12:10:42.273Z,29.73
2023-04-20T12:11:42.294Z,29.88
2023-04-20T12:12:42.296Z,30.08
2023-04-20T12:13:42.174Z,30.23
2023-04-20T12:14:42.173Z,30.18
2023-04-20T12:15:42.272Z,30.30
2023-04-20T12:16:42.051Z,30.06
2023-04-20T12:17:41.996Z,29.98
2023-04-20T12:18:41.956Z,29.87
2023-04-20T12:19:41.913Z,29.87
2023-04-20T12:20:41.868Z,29.78
2023-04-20T12:21:41.823Z,29.68
2023-04-20T12:22:41.772Z,29.61
2023-04-20T12:23:41.723Z,29.48
2023-04-20T12:24:41.686Z,29.35
2023-04-20T12:25:41.639Z,29.38
2023-04-20T12:26:41.590Z,29.26
2023-04-20T12:27:41.520Z,29.19
2023-04-20T12:28:41.511Z,28.96
2023-04-20T12:29:41.456Z,29.01
2023-04-20T12:30:41.418Z,28.92
2023-04-20T12:31:41.444Z,28.87
2023-04-20T12:32:41.352Z,28.94
2023-04-20T12:33:41.286Z,28.87
2023-04-20T12:34:41.243Z,28.81
2023-04-20T12:35:41.195Z,28.73
2023-04-20T12:36:41.149Z,28.60
2023-04-20T12:37:41.104Z,28.65
2023-04-20T12:38:41.105Z,28.63
2023-04-20T12:39:41.015Z,28.74
2023-04-20T12:40:40.971Z,28.76
2023-04-20T12:41:40.919Z,28.80
2023-04-20T12:42:40.874Z,28.80
2023-04-20T12:43:40.832Z,28.87
2023-04-20T12:44:40.793Z,28.85
2023-04-20T12:45:40.741Z,28.84
2023-04-20T12:46:40.816Z,28.90
2023-04-20T12:47:40.654Z,28.92
2023-04-20T12:48:40.608Z,28.99
2023-04-20T12:49:40.570Z,28.93
2023-04-20T12:50:40.521Z,28.95
2023-04-20T12:51:40.482Z,28.93
2023-04-20T12:52:40.438Z,28.92
2023-04-20T12:53:40.393Z,28.90
2023-04-20T12:54:42.139Z,28.92
2023-04-20T12:55:40.291Z,28.90
2023-04-20T12:56:40.252Z,28.88
2023-04-20T12:57:40.206Z,28.90